Time;durP1;ratioP1;P1;durP2;ratioP2;P2;SDS_P1;SDS_P2;PMS_P1;PMS_P2;Temp;Humidity;BMP_temperature;BMP_pressure;BME280_temperature;BME280_humidity;BME280_pressure;Samples;Min_cycle;Max_cycle;Signal;HPM_P1;HPM_P2
2021/10/07 00:02:00;;;;;;;0.50;0.50;;;11.90;56.90;;;;;;4821389;28;20199;-81
2021/10/07 00:04:23;;;;;;;0.47;0.47;;;;;;;;;;4823068;28;20199;-80
2021/10/07 00:06:46;;;;;;;0.50;0.50;;;;;;;;;;4824396;28;20699;-81
2021/10/07 00:09:08;;;;;;;0.60;0.60;;;;;;;;;;4823393;28;20234;-81
2021/10/07 00:11:32;;;;;;;0.97;0.87;;;12.40;55.30;;;;;;4824143;28;20615;-79
2021/10/07 00:13:56;;;;;;;0.43;0.43;;;12.30;55.00;;;;;;4807007;28;20258;-82
2021/10/07 00:16:18;;;;;;;0.40;0.40;;;12.40;57.00;;;;;;4820518;28;20660;-81
2021/10/07 00:18:41;;;;;;;0.87;0.80;;;12.30;55.60;;;;;;4819609;28;20572;-82
2021/10/07 00:21:04;;;;;;;0.50;0.50;;;12.30;55.80;;;;;;4821463;28;20597;-82
2021/10/07 00:23:28;;;;;;;0.33;0.33;;;;;;;;;;4820907;28;20673;-81
2021/10/07 00:25:50;;;;;;;0.87;0.70;;;12.30;54.90;;;;;;4821258;28;20237;-82
2021/10/07 00:28:12;;;;;;;0.73;0.73;;;12.60;55.10;;;;;;4836241;28;20199;-82
2021/10/07 00:30:38;;;;;;;1.00;0.90;;;12.30;57.40;;;;;;4855078;28;20232;-82
2021/10/07 00:33:11;;;;;;;0.57;0.50;;;;;;;;;;4839979;28;20239;-82
2021/10/07 00:40:53;;;;;;;0.73;0.73;;;12.40;62.30;;;;;;4839825;28;20203;-82
2021/10/07 00:43:16;;;;;;;0.40;0.40;;;12.50;65.10;;;;;;4821975;28;20227;-82
2021/10/07 00:45:40;;;;;;;0.90;0.87;;;12.60;64.40;;;;;;4839676;28;20190;-82
2021/10/07 00:48:02;;;;;;;0.50;0.50;;;12.70;64.90;;;;;;4822458;28;20207;-79
2021/10/07 00:50:25;;;;;;;0.70;0.70;;;;;;;;;;4839555;28;20186;-81
2021/10/07 00:52:47;;;;;;;0.40;0.40;;;12.40;66.80;;;;;;4839803;28;20187;-77
2021/10/07 00:55:11;;;;;;;0.93;0.83;;;12.40;67.30;;;;;;4839821;28;20203;-82
2021/10/07 00:57:34;;;;;;;1.13;1.03;;;;;;;;;;4854086;28;20202;-81
2021/10/07 00:59:57;;;;;;;0.40;0.40;;;12.40;63.60;;;;;;4821930;28;20210;-82
2021/10/07 01:02:21;;;;;;;0.60;0.60;;;12.10;62.30;;;;;;4820245;28;20187;-79
2021/10/07 01:04:44;;;;;;;0.73;0.70;;;12.30;63.80;;;;;;4839493;28;20241;-81
2021/10/07 01:07:07;;;;;;;0.20;0.20;;;12.30;64.60;;;;;;4839503;28;20301;-82
2021/10/07 01:09:31;;;;;;;0.80;0.73;;;12.30;63.60;;;;;;4851261;28;20216;-81
2021/10/07 01:11:53;;;;;;;1.53;0.90;;;12.30;62.80;;;;;;4824949;28;20202;-82
2021/10/07 01:14:42;;;;;;;0.43;0.43;;;12.20;64.50;;;;;;4840705;28;20190;-81
2021/10/07 01:17:05;;;;;;;0.50;0.50;;;12.50;64.10;;;;;;4840763;28;20265;-81
2021/10/07 01:19:29;;;;;;;0.50;0.50;;;12.20;63.30;;;;;;4840366;28;20229;-80
2021/10/07 01:21:53;;;;;;;0.60;0.60;;;12.30;61.10;;;;;;4840111;28;20199;-82
2021/10/07 01:24:15;;;;;;;0.50;0.50;;;;;;;;;;4840725;28;20680;-82
2021/10/07 01:26:38;;;;;;;0.40;0.40;;;12.30;60.10;;;;;;4857851;28;20263;-81
2021/10/07 01:29:01;;;;;;;0.73;0.73;;;;;;;;;;4858167;28;20620;-81
2021/10/07 01:31:23;;;;;;;0.63;0.63;;;;;;;;;;4848191;28;20183;-80
2021/10/07 01:33:46;;;;;;;0.57;0.57;;;;;;;;;;4838606;28;20262;-81
2021/10/07 01:36:09;;;;;;;0.43;0.43;;;12.20;59.90;;;;;;4838568;28;20202;-82
2021/10/07 01:38:33;;;;;;;1.10;1.00;;;12.50;60.80;;;;;;4821340;28;20672;-80
2021/10/07 01:40:56;;;;;;;0.40;0.40;;;12.10;61.80;;;;;;4837469;28;20206;-81
2021/10/07 01:43:19;;;;;;;0.50;0.50;;;12.30;60.60;;;;;;4838802;28;20256;-82
2021/10/07 01:45:41;;;;;;;0.70;0.70;;;;;;;;;;4821273;28;20199;-79
2021/10/07 01:48:05;;;;;;;0.50;0.50;;;12.70;58.70;;;;;;4820947;28;20196;-81
2021/10/07 01:50:27;;;;;;;0.57;0.53;;;12.10;57.90;;;;;;4853972;28;20674;-80
2021/10/07 01:52:50;;;;;;;0.53;0.53;;;12.40;57.40;;;;;;4853758;28;20252;-80
2021/10/07 01:55:14;;;;;;;0.60;0.60;;;12.10;58.10;;;;;;4838516;28;20214;-81
2021/10/07 01:57:38;;;;;;;0.70;0.70;;;12.10;58.40;;;;;;4838347;28;20183;-81
2021/10/07 02:00:01;;;;;;;0.40;0.40;;;;;;;;;;4820740;28;20675;-78
2021/10/07 02:02:33;;;;;;;0.97;0.87;;;12.20;57.40;;;;;;4836177;28;20245;-80
2021/10/07 02:04:56;;;;;;;0.50;0.50;;;;;;;;;;4853177;28;20237;-81
2021/10/07 02:07:20;;;;;;;0.40;0.40;;;12.90;57.80;;;;;;4834600;28;20227;-81
2021/10/07 02:09:43;;;;;;;0.60;0.60;;;11.90;58.10;;;;;;4834341;28;20202;-81
2021/10/07 02:12:08;;;;;;;0.60;0.60;;;12.20;59.10;;;;;;4819423;28;20545;-81
2021/10/07 02:14:30;;;;;;;1.00;0.90;;;;;;;;;;4819466;28;20188;-81
2021/10/07 02:16:53;;;;;;;0.97;0.63;;;;;;;;;;4819457;28;20190;-81
2021/10/07 02:19:16;;;;;;;0.60;0.60;;;12.60;61.90;;;;;;4819392;28;20183;-81
2021/10/07 02:21:38;;;;;;;0.77;0.77;;;;;;;;;;4819040;28;20199;-80
2021/10/07 02:24:01;;;;;;;0.30;0.30;;;;;;;;;;4819274;28;20215;-80
2021/10/07 02:26:24;;;;;;;0.50;0.50;;;12.80;61.00;;;;;;4820031;28;20199;-81
2021/10/07 02:28:48;;;;;;;0.50;0.50;;;12.10;62.20;;;;;;4818872;28;20191;-79
2021/10/07 02:31:10;;;;;;;0.37;0.37;;;;;;;;;;4819055;28;20246;-80
2021/10/07 02:33:34;;;;;;;1.20;1.00;;;12.10;59.30;;;;;;4817672;28;20196;-78
2021/10/07 02:35:56;;;;;;;0.40;0.40;;;;;;;;;;4819210;28;20603;-80
2021/10/07 02:38:19;;;;;;;0.50;0.50;;;;;;;;;;4817220;28;20242;-80
2021/10/07 02:40:42;;;;;;;0.53;0.53;;;;;;;;;;4817591;28;20218;-84
2021/10/07 02:43:06;;;;;;;0.47;0.47;;;;;;;;;;4819028;28;20191;-79
2021/10/07 02:45:29;;;;;;;0.47;0.43;;;12.30;61.40;;;;;;4818960;28;20199;-82
2021/10/07 02:47:52;;;;;;;0.50;0.50;;;;;;;;;;4818926;28;20183;-82
2021/10/07 02:50:16;;;;;;;0.37;0.37;;;12.10;60.20;;;;;;4818985;28;20215;-83
2021/10/07 02:52:39;;;;;;;0.83;0.80;;;;;;;;;;4818803;28;20618;-81
2021/10/07 02:55:01;;;;;;;0.73;0.73;;;12.40;58.60;;;;;;4818971;28;20192;-79
2021/10/07 02:57:24;;;;;;;0.30;0.30;;;12.20;58.20;;;;;;4819250;28;20241;-82
2021/10/07 02:59:47;;;;;;;0.50;0.50;;;11.80;58.00;;;;;;4818700;28;20601;-79
2021/10/07 03:02:11;;;;;;;0.50;0.50;;;12.00;58.80;;;;;;4817425;28;20257;-82
2021/10/07 03:04:34;;;;;;;0.63;0.63;;;;;;;;;;4818603;28;20211;-82
2021/10/07 03:06:57;;;;;;;0.40;0.40;;;11.30;56.80;;;;;;4817214;28;20226;-82
2021/10/07 03:09:20;;;;;;;0.50;0.50;;;;;;;;;;4832568;28;20219;-82
2021/10/07 03:11:42;;;;;;;0.93;0.87;;;12.60;58.90;;;;;;4837496;28;20194;-80
2021/10/07 03:14:05;;;;;;;0.60;0.60;;;12.00;59.70;;;;;;4837667;28;20557;-83
2021/10/07 03:16:28;;;;;;;0.30;0.30;;;11.90;61.40;;;;;;4837329;28;20545;-82
2021/10/07 03:18:51;;;;;;;0.60;0.60;;;12.20;61.80;;;;;;4837612;28;20579;-81
2021/10/07 03:21:14;;;;;;;0.40;0.40;;;;;;;;;;4837661;28;20190;-80
2021/10/07 03:23:37;;;;;;;0.77;0.77;;;;;;;;;;4837251;28;20214;-82
2021/10/07 03:26:00;;;;;;;0.60;0.60;;;;;;;;;;4837388;28;20187;-83
2021/10/07 03:28:22;;;;;;;0.33;0.33;;;;;;;;;;4836446;28;20620;-82
2021/10/07 03:30:45;;;;;;;0.77;0.73;;;12.00;60.80;;;;;;4820964;28;20195;-82
2021/10/07 03:33:08;;;;;;;0.50;0.50;;;;;;;;;;4818586;28;20238;-82
2021/10/07 03:35:31;;;;;;;0.63;0.60;;;12.00;61.10;;;;;;4818302;28;20188;-82
2021/10/07 03:37:54;;;;;;;0.60;0.60;;;;;;;;;;4818365;28;20187;-82
2021/10/07 03:40:17;;;;;;;0.37;0.37;;;;;;;;;;4818127;28;20191;-80
2021/10/07 03:42:40;;;;;;;0.80;0.80;;;12.20;59.70;;;;;;4817112;28;20191;-82
2021/10/07 03:45:03;;;;;;;0.50;0.50;;;12.20;59.40;;;;;;4818560;28;20575;-79
2021/10/07 03:47:27;;;;;;;0.40;0.40;;;12.30;60.00;;;;;;4818393;28;20610;-82
2021/10/07 03:49:51;;;;;;;0.40;0.40;;;;;;;;;;4818705;28;20191;-79
2021/10/07 03:52:15;;;;;;;0.30;0.30;;;12.10;63.10;;;;;;4822168;28;20234;-82
2021/10/07 03:54:38;;;;;;;0.77;0.77;;;13.70;62.10;;;;;;4822072;28;20707;-79
2021/10/07 03:57:01;;;;;;;0.30;0.30;;;;;;;;;;4822023;28;20191;-80
2021/10/07 03:59:23;;;;;;;0.50;0.50;;;12.20;60.20;;;;;;4821857;28;20210;-81
2021/10/07 04:01:46;;;;;;;0.30;0.30;;;;;;;;;;4851155;28;20734;-79
2021/10/07 04:04:09;;;;;;;0.43;0.43;;;12.10;59.80;;;;;;4821740;28;20207;-83
2021/10/07 04:06:31;;;;;;;0.60;0.60;;;12.00;60.50;;;;;;4821873;28;20199;-81
2021/10/07 04:08:55;;;;;;;0.37;0.37;;;12.00;60.50;;;;;;4840461;28;20644;-81
2021/10/07 04:11:19;;;;;;;0.40;0.40;;;12.70;61.20;;;;;;4839842;28;20623;-80
2021/10/07 04:14:02;;;;;;;0.37;0.37;;;;;;;;;;4840552;28;20187;-82
2021/10/07 04:16:44;;;;;;;0.60;0.60;;;12.30;58.80;;;;;;4840616;28;20197;-82
2021/10/07 04:19:27;;;;;;;0.40;0.40;;;;;;;;;;4840130;28;20205;-81
2021/10/07 04:22:10;;;;;;;0.47;0.47;;;;;;;;;;4840132;28;20540;-81
2021/10/07 04:24:55;;;;;;;0.50;0.50;;;12.20;62.40;;;;;;4840286;28;20206;-81
2021/10/07 04:27:38;;;;;;;0.70;0.67;;;;;;;;;;4839690;28;20629;-81
2021/10/07 04:30:21;;;;;;;0.37;0.37;;;;;;;;;;4840093;28;20552;-81
2021/10/07 04:33:03;;;;;;;0.33;0.33;;;12.10;59.40;;;;;;4840058;28;20540;-79
2021/10/07 04:35:48;;;;;;;0.33;0.33;;;12.00;60.10;;;;;;4839906;28;20562;-80
2021/10/07 04:38:30;;;;;;;0.43;0.43;;;;;;;;;;4839856;28;20410;-82
2021/10/07 04:41:14;;;;;;;0.40;0.40;;;12.20;61.80;;;;;;4825585;28;20187;-82
2021/10/07 04:43:56;;;;;;;0.40;0.40;;;12.00;60.60;;;;;;4839850;28;20538;-82
2021/10/07 04:46:39;;;;;;;0.33;0.33;;;11.30;61.40;;;;;;4839804;28;20229;-82
2021/10/07 04:49:22;;;;;;;0.50;0.50;;;;;;;;;;4839834;28;20194;-82
2021/10/07 04:52:04;;;;;;;0.40;0.40;;;12.00;58.60;;;;;;4825239;28;20187;-80
2021/10/07 04:54:47;;;;;;;0.20;0.20;;;;;;;;;;4825219;28;20189;-79
2021/10/07 04:57:31;;;;;;;0.60;0.60;;;11.90;56.90;;;;;;4839469;28;20189;-82
2021/10/07 05:00:14;;;;;;;0.30;0.30;;;11.90;57.50;;;;;;4839587;28;20229;-82
2021/10/07 05:02:57;;;;;;;0.30;0.30;;;;;;;;;;4839644;28;20178;-82
2021/10/07 05:05:40;;;;;;;0.63;0.63;;;11.20;55.50;;;;;;4839043;28;20580;-81
2021/10/07 05:08:22;;;;;;;0.40;0.40;;;11.90;54.90;;;;;;4839249;28;20587;-81
2021/10/07 05:11:06;;;;;;;0.50;0.50;;;;;;;;;;4847764;28;20196;-81
2021/10/07 05:13:49;;;;;;;0.33;0.33;;;12.00;55.10;;;;;;4858601;28;20185;-80
2021/10/07 05:16:32;;;;;;;0.50;0.50;;;11.80;54.20;;;;;;4843780;28;20189;-79
2021/10/07 05:19:14;;;;;;;0.40;0.40;;;12.20;53.90;;;;;;4858418;28;20514;-82
2021/10/07 05:22:00;;;;;;;0.40;0.40;;;12.20;54.70;;;;;;4858519;28;20640;-82
2021/10/07 05:24:42;;;;;;;0.50;0.50;;;11.80;54.80;;;;;;4843392;28;20566;-81
2021/10/07 05:27:25;;;;;;;0.40;0.40;;;;;;;;;;4843722;28;20184;-80
2021/10/07 05:30:10;;;;;;;0.40;0.40;;;12.60;58.00;;;;;;4858316;28;20552;-79
2021/10/07 05:32:52;;;;;;;0.60;0.60;;;;;;;;;;4823253;28;20187;-80
2021/10/07 05:35:35;;;;;;;0.47;0.47;;;12.50;58.60;;;;;;4838844;28;20175;-81
2021/10/07 05:38:18;;;;;;;0.50;0.50;;;12.00;58.80;;;;;;4824586;28;20178;-77
2021/10/07 05:41:01;;;;;;;0.33;0.33;;;;;;;;;;4824526;28;20543;-82
2021/10/07 05:43:43;;;;;;;0.47;0.47;;;12.50;57.70;;;;;;4838819;28;20542;-81
2021/10/07 05:46:27;;;;;;;0.47;0.47;;;12.40;58.70;;;;;;4838740;28;20211;-81
2021/10/07 05:49:10;;;;;;;0.43;0.43;;;;;;;;;;4839110;28;20179;-81
2021/10/07 05:51:53;;;;;;;0.40;0.40;;;;;;;;;;4838880;28;20576;-81
2021/10/07 05:54:35;;;;;;;0.53;0.50;;;12.70;61.30;;;;;;4838653;28;20205;-80
2021/10/07 05:57:18;;;;;;;0.23;0.23;;;12.60;63.10;;;;;;4838839;28;20185;-79
2021/10/07 06:00:00;;;;;;;0.30;0.30;;;12.70;63.90;;;;;;4838859;28;20214;-81
2021/10/07 06:02:44;;;;;;;0.50;0.50;;;12.10;63.70;;;;;;4837414;28;20182;-83
2021/10/07 06:05:27;;;;;;;0.37;0.37;;;;;;;;;;4838599;28;20212;-80
2021/10/07 06:08:09;;;;;;;0.30;0.30;;;13.10;63.80;;;;;;4838387;28;20228;-81
2021/10/07 06:10:52;;;;;;;0.57;0.57;;;13.20;63.60;;;;;;4838554;28;20186;-81
2021/10/07 06:13:34;;;;;;;0.93;0.83;;;;;;;;;;4822918;28;20179;-81
2021/10/07 06:16:19;;;;;;;0.20;0.20;;;13.20;67.80;;;;;;4823691;28;20179;-78
2021/10/07 06:19:04;;;;;;;0.40;0.40;;;13.00;68.80;;;;;;4838316;28;20545;-80
2021/10/07 06:21:47;;;;;;;0.33;0.33;;;;;;;;;;4838463;28;20190;-79
2021/10/07 06:24:29;;;;;;;0.47;0.47;;;;;;;;;;4838006;28;20549;-80
2021/10/07 06:27:12;;;;;;;0.40;0.40;;;12.30;83.50;;;;;;4838265;28;20542;-79
2021/10/07 06:29:54;;;;;;;0.40;0.40;;;;;;;;;;4838059;28;20253;-79
2021/10/07 06:32:37;;;;;;;0.57;0.57;;;12.70;92.40;;;;;;4837469;28;20175;-80
2021/10/07 06:35:22;;;;;;;0.60;0.60;;;13.20;99.90;;;;;;4838084;28;20219;-79
2021/10/07 06:38:04;;;;;;;0.23;0.23;;;;;;;;;;4838065;28;20211;-78
2021/10/07 06:40:47;;;;;;;0.37;0.33;;;;;;;;;;4837931;28;20232;-77
2021/10/07 06:43:29;;;;;;;0.70;0.70;;;13.00;90.70;;;;;;4837387;28;20308;-79
2021/10/07 06:46:12;;;;;;;0.30;0.30;;;13.50;93.60;;;;;;4837840;28;20738;-81
2021/10/07 06:48:55;;;;;;;0.43;0.43;;;13.30;95.90;;;;;;4837903;28;20182;-80
2021/10/07 06:51:39;;;;;;;0.70;0.70;;;13.30;99.90;;;;;;4837820;28;20189;-80
2021/10/07 06:54:22;;;;;;;0.43;0.43;;;;;;;;;;4850402;28;20191;-81
2021/10/07 06:56:44;;;;;;;0.50;0.50;;;13.50;99.90;;;;;;4837786;28;20187;-81
2021/10/07 06:59:08;;;;;;;0.37;0.37;;;;;;;;;;4837631;28;20215;-78
2021/10/07 07:01:30;;;;;;;0.37;0.37;;;13.50;99.90;;;;;;4835862;28;20200;-81
2021/10/07 07:03:55;;;;;;;0.60;0.57;;;12.90;99.90;;;;;;4837563;28;20675;-80
2021/10/07 07:06:18;;;;;;;0.77;0.60;;;13.50;54.60;;;;;;4837554;28;20207;-79
2021/10/07 07:08:42;;;;;;;0.87;0.80;;;13.90;60.70;;;;;;4837395;28;20716;-80
2021/10/07 07:11:04;;;;;;;0.50;0.50;;;12.40;61.70;;;;;;4837327;28;20198;-78
2021/10/07 07:13:27;;;;;;;0.30;0.30;;;;;;;;;;4837499;28;20253;-79
2021/10/07 07:15:50;;;;;;;0.50;0.50;;;;;;;;;;4837681;28;20246;-79
2021/10/07 07:18:12;;;;;;;0.50;0.40;;;;;;;;;;4837650;28;20244;-79
2021/10/07 07:20:35;;;;;;;0.63;0.60;;;;;;;;;;4843042;28;20227;-79
2021/10/07 07:22:57;;;;;;;0.57;0.57;;;14.10;99.90;;;;;;4856712;28;20186;-78
2021/10/07 07:25:21;;;;;;;0.73;0.70;;;14.40;42.80;;;;;;4841383;28;20237;-81
2021/10/07 07:27:58;;;;;;;0.90;0.80;;;14.30;49.70;;;;;;4830328;28;20194;-77
2021/10/07 07:30:31;;;;;;;1.27;0.77;;;14.40;31.10;;;;;;4838289;28;20221;-79
2021/10/07 07:33:13;;;;;;;1.30;0.83;;;14.40;93.20;;;;;;4855134;28;20199;-77
2021/10/07 07:36:11;;;;;;;2.63;1.20;;;14.60;32.00;;;;;;4839331;28;20724;-80
2021/10/07 07:38:51;;;;;;;2.57;1.70;;;14.60;58.60;;;;;;4820775;28;20198;-79
2021/10/07 07:41:29;;;;;;;1.73;1.00;;;14.70;59.80;;;;;;4821876;28;20187;-80
2021/10/07 07:44:19;;;;;;;0.60;0.60;;;14.80;81.20;;;;;;4825366;28;20190;-77
2021/10/07 07:47:11;;;;;;;0.80;0.70;;;14.80;40.50;;;;;;4822537;28;20218;-82
2021/10/07 07:50:04;;;;;;;2.33;1.40;;;14.80;35.10;;;;;;4837138;28;20333;-80
2021/10/07 07:52:37;;;;;;;2.27;1.63;;;;;;;;;;4837759;28;20554;-81
2021/10/07 07:55:00;;;;;;;0.87;0.80;;;;;;;;;;4839470;28;20245;-84
2021/10/07 07:57:23;;;;;;;0.80;0.70;;;15.00;31.00;;;;;;4839421;28;20269;-80
2021/10/07 07:59:46;;;;;;;0.63;0.63;;;;;;;;;;4837971;28;20215;-79
2021/10/07 08:02:09;;;;;;;0.87;0.77;;;14.90;43.40;;;;;;4837216;28;20187;-78
2021/10/07 08:04:31;;;;;;;1.43;1.20;;;15.10;70.80;;;;;;4839687;28;20726;-81
2021/10/07 08:06:54;;;;;;;1.20;0.83;;;15.10;80.30;;;;;;4838699;28;20629;-81
2021/10/07 08:09:16;;;;;;;1.00;0.90;;;15.10;39.40;;;;;;4839812;28;20225;-81
2021/10/07 08:11:40;;;;;;;2.60;1.70;;;;;;;;;;4838889;28;20186;-80
2021/10/07 08:14:04;;;;;;;1.03;0.67;;;15.70;31.90;;;;;;4839793;28;20195;-77
2021/10/07 08:16:29;;;;;;;0.63;0.60;;;;;;;;;;4837210;28;20234;-82
2021/10/07 08:18:51;;;;;;;0.70;0.50;;;15.80;68.10;;;;;;4839788;28;20179;-80
2021/10/07 08:21:13;;;;;;;0.87;0.77;;;14.80;40.70;;;;;;4839831;28;20257;-80
2021/10/07 08:23:37;;;;;;;1.40;1.13;;;15.50;46.30;;;;;;4820333;28;20657;-81
2021/10/07 08:25:59;;;;;;;0.60;0.60;;;15.40;99.90;;;;;;4838794;28;20218;-80
2021/10/07 08:28:23;;;;;;;1.30;1.07;;;15.50;47.90;;;;;;4854575;28;20189;-79
2021/10/07 08:30:46;;;;;;;1.60;1.23;;;15.20;78.00;;;;;;4839131;28;20191;-79
2021/10/07 08:33:09;;;;;;;0.73;0.70;;;;;;;;;;4839154;28;20249;-76
2021/10/07 08:35:32;;;;;;;1.40;1.10;;;15.00;67.00;;;;;;4837389;28;20205;-79
2021/10/07 08:37:55;;;;;;;0.60;0.57;;;;;;;;;;4839038;28;20253;-79
2021/10/07 08:40:17;;;;;;;0.87;0.73;;;13.20;72.50;;;;;;4821652;28;20246;-77
2021/10/07 08:42:41;;;;;;;1.23;1.03;;;15.20;50.80;;;;;;4838852;28;20187;-81
2021/10/07 08:45:05;;;;;;;0.53;0.40;;;14.50;31.70;;;;;;4838455;28;20699;-80
2021/10/07 08:47:30;;;;;;;0.80;0.80;;;14.60;96.50;;;;;;4820491;28;20590;-81
2021/10/07 08:49:53;;;;;;;0.50;0.50;;;;;;;;;;4853767;28;20683;-82
2021/10/07 08:52:15;;;;;;;0.70;0.60;;;;;;;;;;4821477;28;20203;-78
2021/10/07 08:54:38;;;;;;;1.30;1.00;;;;;;;;;;4838563;28;20190;-77
2021/10/07 08:57:01;;;;;;;0.70;0.60;;;14.80;35.70;;;;;;4837802;28;20194;-81
2021/10/07 08:59:24;;;;;;;0.70;0.60;;;;;;;;;;4839177;28;20211;-80
2021/10/07 09:01:48;;;;;;;0.60;0.50;;;14.90;51.30;;;;;;4851760;28;20202;-80
2021/10/07 09:04:24;;;;;;;1.03;0.70;;;14.80;47.60;;;;;;4838921;28;20190;-81
2021/10/07 09:06:48;;;;;;;0.53;0.53;;;14.80;84.80;;;;;;4836979;28;20240;-78
2021/10/07 09:09:11;;;;;;;0.63;0.57;;;;;;;;;;4838851;28;20199;-77
2021/10/07 09:11:36;;;;;;;0.90;0.80;;;14.80;71.30;;;;;;4841330;28;20213;-81
2021/10/07 09:14:00;;;;;;;0.50;0.50;;;14.90;88.50;;;;;;4857662;28;20182;-79
2021/10/07 09:16:23;;;;;;;0.87;0.70;;;;;;;;;;4856671;28;20248;-80
2021/10/07 09:18:45;;;;;;;1.07;0.97;;;15.10;95.90;;;;;;4856428;28;20248;-81
2021/10/07 09:21:09;;;;;;;0.50;0.50;;;14.50;87.90;;;;;;4850741;28;20194;-80
2021/10/07 09:23:34;;;;;;;1.00;0.90;;;14.60;71.10;;;;;;4838221;28;20198;-81
2021/10/07 09:26:08;;;;;;;1.07;0.90;;;14.80;64.20;;;;;;4837698;28;20257;-80
2021/10/07 09:28:48;;;;;;;1.43;1.10;;;14.40;56.00;;;;;;4836891;28;20254;-80
2021/10/07 09:31:11;;;;;;;0.50;0.50;;;;;;;;;;4838429;28;20174;-82
2021/10/07 09:33:40;;;;;;;1.37;1.10;;;14.80;39.50;;;;;;4837724;28;20183;-81
2021/10/07 09:36:12;;;;;;;0.60;0.60;;;14.90;42.20;;;;;;4819501;28;20203;-81
2021/10/07 09:38:35;;;;;;;1.30;1.20;;;14.90;52.10;;;;;;4819143;28;20681;-80
2021/10/07 09:41:09;;;;;;;0.63;0.63;;;15.10;64.20;;;;;;4837758;28;20182;-79
2021/10/07 09:43:42;;;;;;;1.03;0.90;;;15.00;31.60;;;;;;4837755;28;20248;-80
2021/10/07 09:46:07;;;;;;;1.03;0.87;;;15.10;97.50;;;;;;4851977;28;20201;-80
2021/10/07 09:48:39;;;;;;;0.57;0.53;;;15.70;97.70;;;;;;4837452;28;20194;-80
2021/10/07 09:51:01;;;;;;;0.77;0.70;;;15.20;83.90;;;;;;4836994;28;20239;-81
2021/10/07 09:53:27;;;;;;;0.67;0.60;;;15.70;35.00;;;;;;4837944;28;20191;-81
2021/10/07 09:55:51;;;;;;;1.87;1.47;;;15.80;37.10;;;;;;4837096;28;20225;-79
2021/10/07 09:58:15;;;;;;;0.70;0.70;;;15.70;95.10;;;;;;4836511;28;20260;-81
2021/10/07 10:00:42;;;;;;;5.57;4.33;;;15.20;99.90;;;;;;4833012;28;20214;-81
2021/10/07 10:03:07;;;;;;;0.73;0.70;;;16.10;81.60;;;;;;4820272;28;20241;-81
2021/10/07 10:05:31;;;;;;;1.00;0.73;;;16.10;62.80;;;;;;4837459;28;20769;-81
2021/10/07 10:07:54;;;;;;;0.43;0.43;;;;;;;;;;4837160;28;20223;-81
2021/10/07 10:10:18;;;;;;;0.73;0.63;;;16.00;99.90;;;;;;4837708;28;20190;-80
2021/10/07 10:12:41;;;;;;;1.00;0.90;;;;;;;;;;4836317;28;20187;-80
2021/10/07 10:15:06;;;;;;;0.53;0.50;;;16.30;75.70;;;;;;4837543;28;20194;-80
2021/10/07 10:17:28;;;;;;;0.57;0.50;;;16.80;49.00;;;;;;4836085;28;20722;-78
2021/10/07 10:19:53;;;;;;;0.90;0.70;;;16.60;49.00;;;;;;4820111;28;20257;-78
2021/10/07 10:22:15;;;;;;;1.43;1.00;;;;;;;;;;4818666;28;20222;-78
2021/10/07 10:24:39;;;;;;;1.17;0.97;;;18.60;51.00;;;;;;4819333;28;20199;-77
2021/10/07 10:27:05;;;;;;;0.70;0.63;;;19.60;51.20;;;;;;4802074;28;20294;-76
2021/10/07 10:29:30;;;;;;;0.80;0.70;;;;;;;;;;4784518;28;20195;-77
2021/10/07 10:31:54;;;;;;;0.60;0.53;;;20.30;53.00;;;;;;4818344;28;20215;-77
2021/10/07 10:34:18;;;;;;;0.63;0.53;;;20.60;52.60;;;;;;4817204;28;20207;-80
2021/10/07 10:36:44;;;;;;;1.23;0.97;;;19.60;52.70;;;;;;4817207;28;20183;-80
2021/10/07 10:39:11;;;;;;;0.43;0.43;;;19.20;52.50;;;;;;4818123;28;20193;-78
2021/10/07 10:41:52;;;;;;;1.40;1.07;;;18.90;52.30;;;;;;4800285;28;20642;-79
2021/10/07 10:44:33;;;;;;;0.70;0.70;;;18.50;52.00;;;;;;4800056;28;20207;-79
2021/10/07 10:46:59;;;;;;;1.20;1.00;;;18.40;51.90;;;;;;4802555;28;20205;-79
2021/10/07 10:49:22;;;;;;;0.60;0.60;;;;;;;;;;4837151;28;20196;-79
2021/10/07 10:51:50;;;;;;;0.93;0.83;;;18.30;51.70;;;;;;4836625;28;20244;-79
2021/10/07 10:54:15;;;;;;;1.37;1.03;;;;;;;;;;4818737;28;20849;-79
2021/10/07 10:56:55;;;;;;;1.40;1.10;;;18.30;51.40;;;;;;4835469;28;20214;-79
2021/10/07 10:59:20;;;;;;;0.73;0.50;;;19.50;52.40;;;;;;4836511;28;20236;-79
2021/10/07 11:01:44;;;;;;;0.83;0.77;;;19.10;52.50;;;;;;4834957;28;20183;-79
2021/10/07 11:04:09;;;;;;;0.60;0.60;;;19.30;52.80;;;;;;4835370;28;20237;-78
2021/10/07 11:06:31;;;;;;;0.80;0.70;;;18.60;52.00;;;;;;4830790;28;20204;-79
2021/10/07 11:08:56;;;;;;;0.90;0.80;;;17.80;51.60;;;;;;4855706;28;20283;-80
2021/10/07 11:11:24;;;;;;;0.50;0.50;;;18.60;52.20;;;;;;4855751;28;20182;-78
2021/10/07 11:13:49;;;;;;;0.50;0.50;;;18.50;52.30;;;;;;4855722;28;20182;-79
2021/10/07 11:16:15;;;;;;;0.97;0.83;;;18.50;52.50;;;;;;4854352;28;20194;-77
2021/10/07 11:18:39;;;;;;;1.20;1.07;;;18.20;51.70;;;;;;4837676;28;20216;-77
2021/10/07 11:21:05;;;;;;;0.40;0.40;;;18.50;52.30;;;;;;4831851;28;20665;-77
2021/10/07 11:23:29;;;;;;;0.87;0.70;;;;;;;;;;4836579;28;20235;-77
2021/10/07 11:25:54;;;;;;;2.97;2.03;;;21.00;53.90;;;;;;4835752;28;20243;-79
2021/10/07 11:28:18;;;;;;;0.50;0.50;;;23.50;56.20;;;;;;4818072;28;20233;-80
2021/10/07 11:30:43;;;;;;;1.67;1.10;;;;;;;;;;4818425;28;20222;-80
2021/10/07 11:33:05;;;;;;;0.67;0.57;;;26.20;44.00;;;;;;4836625;28;20241;-81
2021/10/07 11:35:30;;;;;;;0.90;0.70;;;26.00;43.90;;;;;;4834815;28;20228;-80
2021/10/07 11:38:04;;;;;;;1.50;1.00;;;24.20;58.60;;;;;;4850091;28;20212;-81
2021/10/07 11:40:30;;;;;;;0.77;0.70;;;21.90;57.80;;;;;;4836188;28;20200;-80
2021/10/07 11:42:54;;;;;;;0.73;0.50;;;22.90;57.20;;;;;;4818868;28;20201;-80
2021/10/07 11:45:21;;;;;;;0.70;0.50;;;23.70;57.40;;;;;;4819225;28;20833;-80
2021/10/07 11:47:44;;;;;;;1.40;0.97;;;;;;;;;;4850669;28;20221;-79
2021/10/07 11:50:13;;;;;;;0.80;0.70;;;25.60;44.70;;;;;;4835710;28;20193;-79
2021/10/07 11:52:38;;;;;;;2.23;1.30;;;27.90;45.90;;;;;;4835412;28;20194;-77
2021/10/07 11:55:00;;;;;;;0.90;0.60;;;;;;;;;;4818719;28;20218;-79
2021/10/07 11:57:23;;;;;;;0.73;0.63;;;;;;;;;;4835572;28;20686;-79
2021/10/07 11:59:46;;;;;;;1.17;0.83;;;27.90;46.40;;;;;;4835075;28;20599;-77
2021/10/07 12:02:13;;;;;;;0.50;0.47;;;26.20;46.00;;;;;;4834598;28;20200;-79
2021/10/07 12:04:36;;;;;;;2.13;1.23;;;;;;;;;;4851300;28;20203;-80
2021/10/07 12:06:58;;;;;;;1.13;0.77;;;25.10;44.70;;;;;;4818110;28;20227;-79
2021/10/07 12:09:22;;;;;;;1.27;0.73;;;27.20;45.30;;;;;;4836145;28;20230;-81
2021/10/07 12:11:45;;;;;;;2.17;1.30;;;;;;;;;;4819409;28;20205;-80
2021/10/07 12:14:07;;;;;;;1.10;0.70;;;31.20;47.80;;;;;;4839744;28;20198;-82
2021/10/07 12:16:32;;;;;;;0.73;0.50;;;31.20;48.50;;;;;;4838719;28;20192;-80
2021/10/07 12:18:57;;;;;;;1.47;0.80;;;30.30;48.20;;;;;;4839304;28;20198;-82
2021/10/07 12:21:21;;;;;;;1.10;0.80;;;28.70;47.70;;;;;;4838681;28;20186;-78
2021/10/07 12:23:50;;;;;;;2.00;1.20;;;26.90;46.40;;;;;;4839219;28;20259;-78
2021/10/07 12:26:24;;;;;;;0.90;0.57;;;26.00;46.50;;;;;;4838933;28;20179;-82
2021/10/07 12:28:47;;;;;;;1.50;1.03;;;;;;;;;;4838912;28;20639;-79
2021/10/07 12:31:11;;;;;;;1.10;0.80;;;25.30;45.80;;;;;;4839491;28;20183;-80
2021/10/07 12:33:35;;;;;;;1.83;1.07;;;25.50;46.10;;;;;;4837993;28;20204;-77
2021/10/07 12:36:04;;;;;;;1.43;0.97;;;25.60;45.90;;;;;;4838453;28;20209;-77
2021/10/07 12:38:27;;;;;;;1.30;0.70;;;26.80;46.60;;;;;;4821110;28;20209;-79
2021/10/07 12:40:54;;;;;;;0.73;0.60;;;28.80;47.40;;;;;;4839309;28;20255;-78
2021/10/07 12:43:18;;;;;;;1.43;0.83;;;30.40;48.00;;;;;;4838412;28;20272;-77
2021/10/07 12:46:03;;;;;;;5.27;2.70;;;30.90;48.00;;;;;;4838340;28;20245;-84
2021/10/07 12:48:25;;;;;;;1.17;0.77;;;32.30;48.70;;;;;;4839184;28;20561;-82
2021/10/07 12:50:48;;;;;;;2.07;1.20;;;;;;;;;;4838652;28;20241;-78
2021/10/07 12:53:11;;;;;;;1.83;1.03;;;;;;;;;;4853700;28;20765;-83
2021/10/07 12:55:36;;;;;;;1.43;0.80;;;;;;;;;;4820575;28;20218;-81
2021/10/07 12:57:58;;;;;;;1.77;0.97;;;34.50;50.00;;;;;;4838466;28;20276;-77
2021/10/07 13:00:25;;;;;;;2.20;1.20;;;34.00;50.10;;;;;;4838410;28;20214;-78
2021/10/07 13:02:48;;;;;;;3.00;1.58;;;33.50;49.90;;;;;;4838482;28;20179;-77
2021/10/07 13:05:15;;;;;;;0.80;0.50;;;32.80;49.60;;;;;;4838276;28;20249;-83
2021/10/07 13:07:38;;;;;;;2.60;1.42;;;;;;;;;;4820324;28;20227;-79
2021/10/07 13:10:01;;;;;;;1.52;0.82;;;30.40;48.30;;;;;;4846287;28;20267;-76
2021/10/07 13:12:23;;;;;;;1.43;0.90;;;;;;;;;;4857757;28;20188;-76
2021/10/07 13:14:54;;;;;;;4.03;1.83;;;26.70;47.00;;;;;;4857395;28;20186;-77
2021/10/07 13:17:18;;;;;;;1.77;0.90;;;26.20;47.20;;;;;;4857099;28;20209;-79
2021/10/07 13:19:41;;;;;;;2.33;1.33;;;25.40;46.60;;;;;;4857676;28;20194;-82
2021/10/07 13:22:04;;;;;;;1.30;0.80;;;23.90;60.50;;;;;;4843425;28;20240;-82
2021/10/07 13:24:26;;;;;;;0.83;0.70;;;;;;;;;;4838533;28;20190;-84
2021/10/07 13:26:57;;;;;;;1.73;1.10;;;;;;;;;;4837061;28;20563;-84
2021/10/07 13:29:19;;;;;;;1.00;0.80;;;;;;;;;;4838715;28;20263;-75
2021/10/07 13:31:42;;;;;;;1.93;1.27;;;;;;;;;;4838824;28;20257;-77